VOHY/HYD METAR and TAF weather

Enter ICAO airport designator
Station Type Date Time Source
VOHY METAR 2019/04/21 16:00 UTC NOAA

VOHY 211600Z 14005KT 6000 SCT020 FEW030CB SCT100 32/19 Q1009 NOSIG


Station Type Date Time Source
VOHY Decoded METAR 2019/04/21 16:00 UTC NOAA

Hyderabad Airport, India (VOHY) 17-27N 078-28E 545M
Apr 21, 2019 - 12:00 PM EDT / 2019.04.21 1600 UTC
Wind: from the SE (140 degrees) at 6 MPH (5 KT):0
Visibility: 3 mile(s):0
Sky conditions: partly cloudy
Weather: Cumulonimbus clouds observed
Temperature: 89 F (32 C)
Dew Point: 66 F (19 C)
Relative Humidity: 46%
Pressure (altimeter): 29.80 in. Hg (1009 hPa)
ob: VOHY 211600Z 14005KT 6000 SCT020 FEW030CB SCT100 32/19 Q1009 NOSIG
cycle: 16

Station Type Date Time Source
VOHY TAF 2019/03/08 06:00 UTC NOAA

TAF VOHY 080500Z 0806/0815 11006KT 6000 SCT015
TEMPO 0806/0811 VRB04KT FEW025 SCT120
TEMPO 0812/0815 06005KT 5000 HZ SCT025 FEW030TCU SCT100

Example: see airport list